sensor_id;sensor_type;location;lat;lon;timestamp;pressure;altitude;pressure_sealevel;temperature;humidity
4199;BME280;2113;50.946;14.610;2023-05-27T00:00:50;51921.88;;;-141.55;54.55
4199;BME280;2113;50.946;14.610;2023-05-27T00:03:18;51945.81;;;-141.55;54.89
4199;BME280;2113;50.946;14.610;2023-05-27T00:05:47;51919.88;;;-141.55;54.94
4199;BME280;2113;50.946;14.610;2023-05-27T00:08:15;51945.81;;;-141.55;55.31
4199;BME280;2113;50.946;14.610;2023-05-27T00:10:44;51943.81;;;-141.55;55.25
4199;BME280;2113;50.946;14.610;2023-05-27T00:13:14;51953.78;;;-141.55;55.28
4199;BME280;2113;50.946;14.610;2023-05-27T00:15:42;51927.88;;;-141.55;55.13
4199;BME280;2113;50.946;14.610;2023-05-27T00:18:12;51933.84;;;-141.55;55.43
4199;BME280;2113;50.946;14.610;2023-05-27T00:20:41;51919.88;;;-141.55;55.56
4199;BME280;2113;50.946;14.610;2023-05-27T00:23:09;51927.88;;;-141.55;55.60
4199;BME280;2113;50.946;14.610;2023-05-27T00:25:38;51961.78;;;-141.55;55.71
4199;BME280;2113;50.946;14.610;2023-05-27T00:28:06;51963.75;;;-141.55;55.67
4199;BME280;2113;50.946;14.610;2023-05-27T00:30:35;51937.84;;;-141.55;55.89
4199;BME280;2113;50.946;14.610;2023-05-27T00:33:03;51937.84;;;-141.55;56.26
4199;BME280;2113;50.946;14.610;2023-05-27T00:35:33;51981.72;;;-141.55;56.55
4199;BME280;2113;50.946;14.610;2023-05-27T00:38:04;51927.88;;;-141.55;56.85
4199;BME280;2113;50.946;14.610;2023-05-27T00:40:34;51945.81;;;-141.55;57.14
4199;BME280;2113;50.946;14.610;2023-05-27T00:43:03;51941.81;;;-141.55;57.28
4199;BME280;2113;50.946;14.610;2023-05-27T00:45:32;51961.78;;;-141.55;57.68
4199;BME280;2113;50.946;14.610;2023-05-27T00:48:03;51937.84;;;-141.55;57.78
4199;BME280;2113;50.946;14.610;2023-05-27T00:50:33;51985.69;;;-141.55;57.83
4199;BME280;2113;50.946;14.610;2023-05-27T00:53:02;51967.75;;;-141.55;58.24
4199;BME280;2113;50.946;14.610;2023-05-27T00:55:30;51945.81;;;-141.55;58.33
4199;BME280;2113;50.946;14.610;2023-05-27T00:57:59;51925.88;;;-141.55;58.45
4199;BME280;2113;50.946;14.610;2023-05-27T01:00:27;51991.69;;;-141.55;58.62
4199;BME280;2113;50.946;14.610;2023-05-27T01:02:55;51949.81;;;-141.55;58.77
4199;BME280;2113;50.946;14.610;2023-05-27T01:05:26;51963.75;;;-141.55;59.11
4199;BME280;2113;50.946;14.610;2023-05-27T01:08:06;51989.69;;;-141.55;59.47
4199;BME280;2113;50.946;14.610;2023-05-27T01:10:43;51987.69;;;-141.55;59.63
4199;BME280;2113;50.946;14.610;2023-05-27T01:13:16;51949.81;;;-141.55;59.88
4199;BME280;2113;50.946;14.610;2023-05-27T01:15:47;51935.84;;;-141.55;59.64
4199;BME280;2113;50.946;14.610;2023-05-27T01:18:16;51949.81;;;-141.55;59.80
4199;BME280;2113;50.946;14.610;2023-05-27T01:20:47;51911.91;;;-141.55;59.77
4199;BME280;2113;50.946;14.610;2023-05-27T01:23:18;51953.78;;;-141.55;60.07
4199;BME280;2113;50.946;14.610;2023-05-27T01:25:46;51921.88;;;-141.55;60.19
4199;BME280;2113;50.946;14.610;2023-05-27T01:28:15;51967.75;;;-141.55;60.33
4199;BME280;2113;50.946;14.610;2023-05-27T01:30:44;51987.69;;;-141.55;60.98
4199;BME280;2113;50.946;14.610;2023-05-27T01:33:15;51969.75;;;-141.55;61.07
4199;BME280;2113;50.946;14.610;2023-05-27T01:35:49;51941.81;;;-141.55;60.97
4199;BME280;2113;50.946;14.610;2023-05-27T01:38:23;51931.84;;;-141.55;61.22
4199;BME280;2113;50.946;14.610;2023-05-27T01:40:53;51943.81;;;-141.55;61.93
4199;BME280;2113;50.946;14.610;2023-05-27T01:43:23;51957.78;;;-141.55;62.05
4199;BME280;2113;50.946;14.610;2023-05-27T01:45:52;51999.66;;;-141.55;61.90
4199;BME280;2113;50.946;14.610;2023-05-27T01:48:20;51955.78;;;-141.55;62.25
4199;BME280;2113;50.946;14.610;2023-05-27T01:50:48;52003.66;;;-141.55;62.25
4199;BME280;2113;50.946;14.610;2023-05-27T01:53:16;51977.72;;;-141.55;62.25
4199;BME280;2113;50.946;14.610;2023-05-27T01:55:46;51961.78;;;-141.55;62.23
4199;BME280;2113;50.946;14.610;2023-05-27T01:58:15;51963.75;;;-141.55;62.41
4199;BME280;2113;50.946;14.610;2023-05-27T02:00:47;51971.75;;;-141.55;62.43
4199;BME280;2113;50.946;14.610;2023-05-27T02:03:16;51967.75;;;-141.55;62.27
4199;BME280;2113;50.946;14.610;2023-05-27T02:05:45;52007.63;;;-141.55;62.49
4199;BME280;2113;50.946;14.610;2023-05-27T02:08:13;52011.63;;;-141.55;62.68
4199;BME280;2113;50.946;14.610;2023-05-27T02:10:41;51955.78;;;-141.55;62.38
4199;BME280;2113;50.946;14.610;2023-05-27T02:13:11;51989.69;;;-141.55;62.71
4199;BME280;2113;50.946;14.610;2023-05-27T02:15:40;51929.88;;;-141.55;62.68
4199;BME280;2113;50.946;14.610;2023-05-27T02:18:08;52003.66;;;-141.55;63.03
4199;BME280;2113;50.946;14.610;2023-05-27T02:20:37;51985.69;;;-141.55;64.26
4199;BME280;2113;50.946;14.610;2023-05-27T02:23:07;51973.72;;;-141.55;63.48
4199;BME280;2113;50.946;14.610;2023-05-27T02:25:35;52013.63;;;-141.55;64.35
4199;BME280;2113;50.946;14.610;2023-05-27T02:28:05;52001.66;;;-141.55;64.17
4199;BME280;2113;50.946;14.610;2023-05-27T02:30:35;51999.66;;;-141.55;64.17
4199;BME280;2113;50.946;14.610;2023-05-27T02:33:04;52011.63;;;-141.55;64.63
4199;BME280;2113;50.946;14.610;2023-05-27T02:35:34;51987.69;;;-141.55;65.06
4199;BME280;2113;50.946;14.610;2023-05-27T02:38:02;51993.69;;;-141.55;64.65
4199;BME280;2113;50.946;14.610;2023-05-27T02:40:30;52011.63;;;-141.55;64.44
4199;BME280;2113;50.946;14.610;2023-05-27T02:42:58;52013.63;;;-141.55;64.55
4199;BME280;2113;50.946;14.610;2023-05-27T02:45:27;51993.69;;;-141.55;64.85
4199;BME280;2113;50.946;14.610;2023-05-27T02:47:57;52011.63;;;-141.55;64.49
4199;BME280;2113;50.946;14.610;2023-05-27T02:50:29;52045.53;;;-141.55;64.79
4199;BME280;2113;50.946;14.610;2023-05-27T02:52:57;51981.72;;;-141.55;65.14
4199;BME280;2113;50.946;14.610;2023-05-27T02:55:26;52041.53;;;-141.55;65.71
4199;BME280;2113;50.946;14.610;2023-05-27T02:57:55;51995.66;;;-141.55;65.73
4199;BME280;2113;50.946;14.610;2023-05-27T03:00:23;52015.63;;;-141.55;65.86
4199;BME280;2113;50.946;14.610;2023-05-27T03:02:52;52055.50;;;-141.55;66.51
4199;BME280;2113;50.946;14.610;2023-05-27T03:05:24;52029.56;;;-141.55;66.96
4199;BME280;2113;50.946;14.610;2023-05-27T03:07:52;52031.56;;;-141.55;66.78
4199;BME280;2113;50.946;14.610;2023-05-27T03:10:23;52039.53;;;-141.55;66.78
4199;BME280;2113;50.946;14.610;2023-05-27T03:12:53;52037.56;;;-141.55;66.75
4199;BME280;2113;50.946;14.610;2023-05-27T03:15:23;52077.44;;;-141.55;66.87
4199;BME280;2113;50.946;14.610;2023-05-27T03:17:51;52005.63;;;-141.55;66.85
4199;BME280;2113;50.946;14.610;2023-05-27T03:20:19;52023.59;;;-141.55;66.67
4199;BME280;2113;50.946;14.610;2023-05-27T03:22:50;52041.53;;;-141.55;66.64
4199;BME280;2113;50.946;14.610;2023-05-27T03:25:18;52019.59;;;-141.55;67.38
4199;BME280;2113;50.946;14.610;2023-05-27T03:27:48;52013.63;;;-141.55;67.16
4199;BME280;2113;50.946;14.610;2023-05-27T03:30:16;52003.66;;;-141.55;67.57
4199;BME280;2113;50.946;14.610;2023-05-27T03:32:48;52005.63;;;-141.55;67.15
4199;BME280;2113;50.946;14.610;2023-05-27T03:35:23;52021.59;;;-141.55;66.73
4199;BME280;2113;50.946;14.610;2023-05-27T03:37:54;52035.56;;;-141.55;66.28
4199;BME280;2113;50.946;14.610;2023-05-27T03:40:22;51989.69;;;-141.55;66.28
4199;BME280;2113;50.946;14.610;2023-05-27T03:42:51;52027.56;;;-141.55;66.37
4199;BME280;2113;50.946;14.610;2023-05-27T03:45:22;52003.66;;;-141.55;66.56
4199;BME280;2113;50.946;14.610;2023-05-27T03:47:51;52017.59;;;-141.55;66.42
4199;BME280;2113;50.946;14.610;2023-05-27T03:50:20;51995.66;;;-141.55;66.22
4199;BME280;2113;50.946;14.610;2023-05-27T03:52:49;52021.59;;;-141.55;65.76
4199;BME280;2113;50.946;14.610;2023-05-27T03:55:18;52011.63;;;-141.55;65.96
4199;BME280;2113;50.946;14.610;2023-05-27T03:57:47;52039.53;;;-141.55;65.79
4199;BME280;2113;50.946;14.610;2023-05-27T04:00:17;51993.69;;;-141.55;65.73
4199;BME280;2113;50.946;14.610;2023-05-27T04:02:48;52033.56;;;-141.55;65.40
4199;BME280;2113;50.946;14.610;2023-05-27T04:05:17;51997.66;;;-141.55;65.52
4199;BME280;2113;50.946;14.610;2023-05-27T04:07:45;52005.63;;;-141.55;65.17
4199;BME280;2113;50.946;14.610;2023-05-27T04:10:14;52027.56;;;-141.55;65.19
4199;BME280;2113;50.946;14.610;2023-05-27T04:12:43;52027.56;;;-141.55;65.21
4199;BME280;2113;50.946;14.610;2023-05-27T04:15:12;52007.63;;;-141.55;64.84
4199;BME280;2113;50.946;14.610;2023-05-27T04:17:40;52003.66;;;-141.55;64.79
4199;BME280;2113;50.946;14.610;2023-05-27T04:20:10;51993.69;;;-141.55;64.41
4199;BME280;2113;50.946;14.610;2023-05-27T04:22:44;51993.69;;;-141.55;64.63
4199;BME280;2113;50.946;14.610;2023-05-27T04:25:13;51991.69;;;-141.55;64.40
4199;BME280;2113;50.946;14.610;2023-05-27T04:27:59;51981.72;;;-141.55;64.40
4199;BME280;2113;50.946;14.610;2023-05-27T04:30:33;51965.75;;;-141.55;64.26
4199;BME280;2113;50.946;14.610;2023-05-27T04:33:09;51959.78;;;-141.55;64.05
4199;BME280;2113;50.946;14.610;2023-05-27T04:35:38;51925.88;;;-141.55;63.47
4199;BME280;2113;50.946;14.610;2023-05-27T04:38:08;51959.78;;;-141.55;63.62
4199;BME280;2113;50.946;14.610;2023-05-27T04:40:49;51973.72;;;-141.55;63.54
4199;BME280;2113;50.946;14.610;2023-05-27T04:43:44;51981.72;;;-141.55;63.23
4199;BME280;2113;50.946;14.610;2023-05-27T04:46:18;51963.75;;;-141.55;62.65
4199;BME280;2113;50.946;14.610;2023-05-27T04:48:48;52031.56;;;-141.55;62.89
4199;BME280;2113;50.946;14.610;2023-05-27T04:51:18;51997.66;;;-141.55;62.30
4199;BME280;2113;50.946;14.610;2023-05-27T04:53:48;52001.66;;;-141.55;61.87
4199;BME280;2113;50.946;14.610;2023-05-27T04:56:19;51981.72;;;-141.55;61.55
4199;BME280;2113;50.946;14.610;2023-05-27T04:58:51;51993.69;;;-141.55;61.78
4199;BME280;2113;50.946;14.610;2023-05-27T05:01:23;52005.63;;;-141.55;61.33
4199;BME280;2113;50.946;14.610;2023-05-27T05:04:02;51957.78;;;-141.55;60.62
4199;BME280;2113;50.946;14.610;2023-05-27T05:06:44;51969.75;;;-141.55;60.66
4199;BME280;2113;50.946;14.610;2023-05-27T05:09:14;51989.69;;;-141.55;60.47
4199;BME280;2113;50.946;14.610;2023-05-27T05:11:44;51973.72;;;-141.55;59.99
4199;BME280;2113;50.946;14.610;2023-05-27T05:14:14;51997.66;;;-141.55;60.33
4199;BME280;2113;50.946;14.610;2023-05-27T05:16:44;51965.75;;;-141.55;60.35
4199;BME280;2113;50.946;14.610;2023-05-27T05:19:13;51965.75;;;-141.55;59.24
4199;BME280;2113;50.946;14.610;2023-05-27T05:21:42;51939.84;;;-141.55;59.86
4199;BME280;2113;50.946;14.610;2023-05-27T05:24:12;51929.88;;;-141.55;59.40
4199;BME280;2113;50.946;14.610;2023-05-27T05:26:41;51973.72;;;-141.55;58.93
4199;BME280;2113;50.946;14.610;2023-05-27T05:29:11;51949.81;;;-141.55;58.14
4199;BME280;2113;50.946;14.610;2023-05-27T05:31:41;51995.66;;;-141.55;58.00
4199;BME280;2113;50.946;14.610;2023-05-27T05:34:14;51959.78;;;-141.55;58.46
4199;BME280;2113;50.946;14.610;2023-05-27T05:36:43;51953.78;;;-141.55;59.21
4199;BME280;2113;50.946;14.610;2023-05-27T05:39:12;51945.81;;;-141.55;59.02
4199;BME280;2113;50.946;14.610;2023-05-27T05:41:46;51937.84;;;-141.55;58.91
4199;BME280;2113;50.946;14.610;2023-05-27T05:44:16;51957.78;;;-141.55;58.55
4199;BME280;2113;50.946;14.610;2023-05-27T05:46:47;51919.88;;;-141.55;58.16
4199;BME280;2113;50.946;14.610;2023-05-27T05:49:17;51921.88;;;-141.55;58.16
4199;BME280;2113;50.946;14.610;2023-05-27T05:51:46;51999.66;;;-141.55;57.61
4199;BME280;2113;50.946;14.610;2023-05-27T05:54:14;51937.84;;;-141.55;57.85
4199;BME280;2113;50.946;14.610;2023-05-27T05:56:48;51925.88;;;-141.55;57.64
4199;BME280;2113;50.946;14.610;2023-05-27T05:59:16;51985.69;;;-141.55;57.18
4199;BME280;2113;50.946;14.610;2023-05-27T06:01:46;51963.75;;;-141.55;57.45
4199;BME280;2113;50.946;14.610;2023-05-27T06:04:16;51927.88;;;-141.55;57.07
4199;BME280;2113;50.946;14.610;2023-05-27T06:06:46;51949.81;;;-141.55;57.95
4199;BME280;2113;50.946;14.610;2023-05-27T06:09:26;51933.84;;;-141.55;57.02
4199;BME280;2113;50.946;14.610;2023-05-27T06:11:58;51939.84;;;-141.55;56.45
4199;BME280;2113;50.946;14.610;2023-05-27T06:14:30;51925.88;;;-141.55;56.64
4199;BME280;2113;50.946;14.610;2023-05-27T06:17:00;51933.84;;;-141.55;56.18
4199;BME280;2113;50.946;14.610;2023-05-27T06:19:29;51949.81;;;-141.55;55.61
4199;BME280;2113;50.946;14.610;2023-05-27T06:21:57;51941.81;;;-141.55;55.29
4199;BME280;2113;50.946;14.610;2023-05-27T06:24:44;51945.81;;;-141.55;56.43
4199;BME280;2113;50.946;14.610;2023-05-27T06:27:18;51895.97;;;-141.55;55.63
4199;BME280;2113;50.946;14.610;2023-05-27T06:29:47;51921.88;;;-141.55;54.91
4199;BME280;2113;50.946;14.610;2023-05-27T06:32:22;51927.88;;;-141.55;54.57
4199;BME280;2113;50.946;14.610;2023-05-27T06:34:51;51917.91;;;-141.55;54.05
4199;BME280;2113;50.946;14.610;2023-05-27T06:37:19;51925.88;;;-141.55;53.64
4199;BME280;2113;50.946;14.610;2023-05-27T06:39:47;51895.97;;;-141.55;53.45
4199;BME280;2113;50.946;14.610;2023-05-27T06:42:16;51909.91;;;-141.55;53.31
4199;BME280;2113;50.946;14.610;2023-05-27T06:45:05;51887.97;;;-141.55;53.35
4199;BME280;2113;50.946;14.610;2023-05-27T06:47:36;51921.88;;;-141.55;51.29
4199;BME280;2113;50.946;14.610;2023-05-27T06:50:05;51856.06;;;-141.55;49.17
4199;BME280;2113;50.946;14.610;2023-05-27T06:52:33;51798.25;;;-141.55;42.88
4199;BME280;2113;50.946;14.610;2023-05-27T06:55:12;51768.34;;;-141.55;39.44
4199;BME280;2113;50.946;14.610;2023-05-27T06:57:59;51704.53;;;-141.55;37.84
4199;BME280;2113;50.946;14.610;2023-05-27T07:00:38;51758.38;;;-141.55;38.94
4199;BME280;2113;50.946;14.610;2023-05-27T07:03:26;51670.63;;;-141.55;36.29
4199;BME280;2113;50.946;14.610;2023-05-27T07:05:54;51710.50;;;-141.55;35.43
4199;BME280;2113;50.946;14.610;2023-05-27T07:08:26;51798.25;;;-141.55;39.00
4199;BME280;2113;50.946;14.610;2023-05-27T07:11:26;51714.50;;;-141.55;38.74
4199;BME280;2113;50.946;14.610;2023-05-27T07:14:00;51718.47;;;-141.55;37.51
4199;BME280;2113;50.946;14.610;2023-05-27T07:16:31;51720.47;;;-141.55;36.27
4199;BME280;2113;50.946;14.610;2023-05-27T07:19:02;51692.56;;;-141.55;36.42
4199;BME280;2113;50.946;14.610;2023-05-27T07:21:34;51614.78;;;-141.55;33.33
4199;BME280;2113;50.946;14.610;2023-05-27T07:24:10;51634.72;;;-141.55;33.26
4199;BME280;2113;50.946;14.610;2023-05-27T07:26:38;51634.72;;;-141.55;34.19
4199;BME280;2113;50.946;14.610;2023-05-27T07:29:08;51670.63;;;-141.55;34.15
4199;BME280;2113;50.946;14.610;2023-05-27T07:32:10;51670.63;;;-141.55;33.30
4199;BME280;2113;50.946;14.610;2023-05-27T07:34:40;51614.78;;;-141.55;32.85
4199;BME280;2113;50.946;14.610;2023-05-27T07:37:09;51590.84;;;-141.55;33.47
4199;BME280;2113;50.946;14.610;2023-05-27T07:39:37;51547.00;;;-141.55;31.49
4199;BME280;2113;50.946;14.610;2023-05-27T07:42:07;51499.13;;;-141.55;30.37
4199;BME280;2113;50.946;14.610;2023-05-27T07:44:35;51616.78;;;-141.55;32.66
4199;BME280;2113;50.946;14.610;2023-05-27T07:47:03;51547.00;;;-141.55;32.94
4199;BME280;2113;50.946;14.610;2023-05-27T07:49:32;51638.72;;;-141.55;32.87
4199;BME280;2113;50.946;14.610;2023-05-27T07:52:29;51541.00;;;-141.55;30.65
4199;BME280;2113;50.946;14.610;2023-05-27T07:54:59;51568.94;;;-141.55;30.70
4199;BME280;2113;50.946;14.610;2023-05-27T07:57:28;51598.84;;;-141.55;30.93
4199;BME280;2113;50.946;14.610;2023-05-27T07:59:56;51547.00;;;-141.55;31.09
4199;BME280;2113;50.946;14.610;2023-05-27T08:02:35;51578.91;;;-141.55;32.08
4199;BME280;2113;50.946;14.610;2023-05-27T08:05:04;51527.06;;;-141.55;30.38
4199;BME280;2113;50.946;14.610;2023-05-27T08:07:46;51560.94;;;-141.55;30.74
4199;BME280;2113;50.946;14.610;2023-05-27T08:10:46;51562.94;;;-141.55;31.47
4199;BME280;2113;50.946;14.610;2023-05-27T08:13:33;51568.94;;;-141.55;31.80
4199;BME280;2113;50.946;14.610;2023-05-27T08:16:24;51527.06;;;-141.55;29.79
4199;BME280;2113;50.946;14.610;2023-05-27T08:19:07;51592.84;;;-141.55;32.37
4199;BME280;2113;50.946;14.610;2023-05-27T08:21:47;51580.88;;;-141.55;31.46
4199;BME280;2113;50.946;14.610;2023-05-27T08:24:43;51558.97;;;-141.55;31.17
4199;BME280;2113;50.946;14.610;2023-05-27T08:27:43;51554.97;;;-141.55;30.07
4199;BME280;2113;50.946;14.610;2023-05-27T08:30:32;51509.09;;;-141.55;29.44
4199;BME280;2113;50.946;14.610;2023-05-27T08:33:06;51562.94;;;-141.55;30.78
4199;BME280;2113;50.946;14.610;2023-05-27T08:35:34;51586.88;;;-141.55;32.41
4199;BME280;2113;50.946;14.610;2023-05-27T08:38:03;51455.28;;;-141.55;29.83
4199;BME280;2113;50.946;14.610;2023-05-27T08:40:38;51417.38;;;-141.55;28.38
4199;BME280;2113;50.946;14.610;2023-05-27T08:43:09;51491.16;;;-141.55;29.07
4199;BME280;2113;50.946;14.610;2023-05-27T08:45:41;51638.72;;;-141.55;30.19
4199;BME280;2113;50.946;14.610;2023-05-27T08:48:10;51656.66;;;-141.55;32.56
4199;BME280;2113;50.946;14.610;2023-05-27T08:50:40;51515.09;;;-141.55;29.83
4199;BME280;2113;50.946;14.610;2023-05-27T08:53:08;51541.00;;;-141.55;29.66
4199;BME280;2113;50.946;14.610;2023-05-27T08:55:40;51531.03;;;-141.55;29.37
4199;BME280;2113;50.946;14.610;2023-05-27T08:58:12;51515.09;;;-141.55;29.28
4199;BME280;2113;50.946;14.610;2023-05-27T09:00:45;51541.00;;;-141.55;29.66
4199;BME280;2113;50.946;14.610;2023-05-27T09:03:19;51596.84;;;-141.55;31.52
4199;BME280;2113;50.946;14.610;2023-05-27T09:05:52;51560.94;;;-141.55;29.94
4199;BME280;2113;50.946;14.610;2023-05-27T09:08:20;51550.97;;;-141.55;30.97
4199;BME280;2113;50.946;14.610;2023-05-27T09:11:00;51541.00;;;-141.55;29.64
4199;BME280;2113;50.946;14.610;2023-05-27T09:13:29;51588.88;;;-141.55;30.19
4199;BME280;2113;50.946;14.610;2023-05-27T09:15:58;51612.78;;;-141.55;30.63
4199;BME280;2113;50.946;14.610;2023-05-27T09:18:30;51602.81;;;-141.55;30.82
4199;BME280;2113;50.946;14.610;2023-05-27T09:20:59;51574.91;;;-141.55;29.97
4199;BME280;2113;50.946;14.610;2023-05-27T09:23:28;51545.00;;;-141.55;30.42
4199;BME280;2113;50.946;14.610;2023-05-27T09:26:00;51602.81;;;-141.55;29.74
4199;BME280;2113;50.946;14.610;2023-05-27T09:28:28;51618.78;;;-141.55;31.62
4199;BME280;2113;50.946;14.610;2023-05-27T09:30:59;51642.72;;;-141.55;31.70
4199;BME280;2113;50.946;14.610;2023-05-27T09:33:31;51612.78;;;-141.55;31.42
4199;BME280;2113;50.946;14.610;2023-05-27T09:36:00;51632.72;;;-141.55;32.42
4199;BME280;2113;50.946;14.610;2023-05-27T09:38:29;51606.81;;;-141.55;33.20
4199;BME280;2113;50.946;14.610;2023-05-27T09:41:00;51634.72;;;-141.55;32.89
4199;BME280;2113;50.946;14.610;2023-05-27T09:43:30;51602.81;;;-141.55;31.31
4199;BME280;2113;50.946;14.610;2023-05-27T09:46:00;51588.88;;;-141.55;30.88
4199;BME280;2113;50.946;14.610;2023-05-27T09:48:31;51590.84;;;-141.55;31.58
4199;BME280;2113;50.946;14.610;2023-05-27T09:51:00;51604.81;;;-141.55;31.22
4199;BME280;2113;50.946;14.610;2023-05-27T09:53:29;51630.75;;;-141.55;31.47
4199;BME280;2113;50.946;14.610;2023-05-27T09:56:00;51616.78;;;-141.55;30.82
4199;BME280;2113;50.946;14.610;2023-05-27T09:58:28;51602.81;;;-141.55;30.66
4199;BME280;2113;50.946;14.610;2023-05-27T10:00:57;51632.72;;;-141.55;30.54
4199;BME280;2113;50.946;14.610;2023-05-27T10:03:27;51658.66;;;-141.55;31.69
4199;BME280;2113;50.946;14.610;2023-05-27T10:06:05;51654.66;;;-141.55;31.53
4199;BME280;2113;50.946;14.610;2023-05-27T10:08:34;51632.72;;;-141.55;31.52
4199;BME280;2113;50.946;14.610;2023-05-27T10:11:04;51572.91;;;-141.55;30.67
4199;BME280;2113;50.946;14.610;2023-05-27T10:13:32;51640.72;;;-141.55;30.83
4199;BME280;2113;50.946;14.610;2023-05-27T10:16:01;51604.81;;;-141.55;32.92
4199;BME280;2113;50.946;14.610;2023-05-27T10:18:30;51646.69;;;-141.55;31.95
4199;BME280;2113;50.946;14.610;2023-05-27T10:21:04;51686.56;;;-141.55;32.73
4199;BME280;2113;50.946;14.610;2023-05-27T10:23:33;51638.72;;;-141.55;32.47
4199;BME280;2113;50.946;14.610;2023-05-27T10:26:06;51666.63;;;-141.55;33.11
4199;BME280;2113;50.946;14.610;2023-05-27T10:28:36;51632.72;;;-141.55;32.98
4199;BME280;2113;50.946;14.610;2023-05-27T10:31:07;51646.69;;;-141.55;33.84
4199;BME280;2113;50.946;14.610;2023-05-27T10:33:37;51634.72;;;-141.55;32.30
4199;BME280;2113;50.946;14.610;2023-05-27T10:36:09;51640.72;;;-141.55;32.73
4199;BME280;2113;50.946;14.610;2023-05-27T10:38:38;51642.72;;;-141.55;33.84
4199;BME280;2113;50.946;14.610;2023-05-27T10:41:09;51672.63;;;-141.55;34.00
4199;BME280;2113;50.946;14.610;2023-05-27T10:43:37;51652.69;;;-141.55;33.65
4199;BME280;2113;50.946;14.610;2023-05-27T10:46:08;51674.63;;;-141.55;33.78
4199;BME280;2113;50.946;14.610;2023-05-27T10:48:37;51676.59;;;-141.55;34.97
4199;BME280;2113;50.946;14.610;2023-05-27T10:51:07;51656.66;;;-141.55;33.60
4199;BME280;2113;50.946;14.610;2023-05-27T10:53:36;51654.66;;;-141.55;33.69
4199;BME280;2113;50.946;14.610;2023-05-27T10:56:05;51632.72;;;-141.55;33.81
4199;BME280;2113;50.946;14.610;2023-05-27T10:58:38;51598.84;;;-141.55;32.57
4199;BME280;2113;50.946;14.610;2023-05-27T11:01:10;51646.69;;;-141.55;34.15
4199;BME280;2113;50.946;14.610;2023-05-27T11:03:43;51682.59;;;-141.55;32.90
4199;BME280;2113;50.946;14.610;2023-05-27T11:06:13;51674.63;;;-141.55;34.32
4199;BME280;2113;50.946;14.610;2023-05-27T11:08:43;51646.69;;;-141.55;34.64
4199;BME280;2113;50.946;14.610;2023-05-27T11:11:12;51620.78;;;-141.55;35.24
4199;BME280;2113;50.946;14.610;2023-05-27T11:13:43;51654.66;;;-141.55;35.47
4199;BME280;2113;50.946;14.610;2023-05-27T11:16:15;51646.69;;;-141.55;34.07
4199;BME280;2113;50.946;14.610;2023-05-27T11:18:45;51664.63;;;-141.55;33.78
4199;BME280;2113;50.946;14.610;2023-05-27T11:21:16;51640.72;;;-141.55;35.62
4199;BME280;2113;50.946;14.610;2023-05-27T11:23:46;51618.78;;;-141.55;33.49
4199;BME280;2113;50.946;14.610;2023-05-27T11:26:17;51630.75;;;-141.55;33.10
4199;BME280;2113;50.946;14.610;2023-05-27T11:28:48;51654.66;;;-141.55;33.50
4199;BME280;2113;50.946;14.610;2023-05-27T11:31:18;51646.69;;;-141.55;33.82
4199;BME280;2113;50.946;14.610;2023-05-27T11:33:50;51630.75;;;-141.55;32.77
4199;BME280;2113;50.946;14.610;2023-05-27T11:36:20;51600.84;;;-141.55;33.40
4199;BME280;2113;50.946;14.610;2023-05-27T11:38:50;51636.72;;;-141.55;34.94
4199;BME280;2113;50.946;14.610;2023-05-27T11:41:19;51618.78;;;-141.55;34.08
4199;BME280;2113;50.946;14.610;2023-05-27T11:43:51;51606.81;;;-141.55;33.55
4199;BME280;2113;50.946;14.610;2023-05-27T11:46:20;51580.88;;;-141.55;33.60
4199;BME280;2113;50.946;14.610;2023-05-27T11:48:49;51596.84;;;-141.55;33.44
4199;BME280;2113;50.946;14.610;2023-05-27T11:51:17;51608.81;;;-141.55;34.38
4199;BME280;2113;50.946;14.610;2023-05-27T11:53:46;51560.94;;;-141.55;35.02
4199;BME280;2113;50.946;14.610;2023-05-27T11:56:14;51634.72;;;-141.55;32.75
4199;BME280;2113;50.946;14.610;2023-05-27T11:58:43;51638.72;;;-141.55;34.11
4199;BME280;2113;50.946;14.610;2023-05-27T12:01:13;51620.78;;;-141.55;34.41
4199;BME280;2113;50.946;14.610;2023-05-27T12:03:41;51680.59;;;-141.55;34.42
4199;BME280;2113;50.946;14.610;2023-05-27T12:06:10;51610.81;;;-141.55;35.16
4199;BME280;2113;50.946;14.610;2023-05-27T12:08:38;51600.84;;;-141.55;34.38
4199;BME280;2113;50.946;14.610;2023-05-27T12:11:06;51642.72;;;-141.55;33.38
4199;BME280;2113;50.946;14.610;2023-05-27T12:13:35;51634.72;;;-141.55;32.86
4199;BME280;2113;50.946;14.610;2023-05-27T12:16:03;51592.84;;;-141.55;33.53
4199;BME280;2113;50.946;14.610;2023-05-27T12:18:33;51640.72;;;-141.55;35.22
4199;BME280;2113;50.946;14.610;2023-05-27T12:21:02;51612.78;;;-141.55;32.88
4199;BME280;2113;50.946;14.610;2023-05-27T12:23:30;51650.69;;;-141.55;33.38
4199;BME280;2113;50.946;14.610;2023-05-27T12:25:58;51549.00;;;-141.55;34.71
4199;BME280;2113;50.946;14.610;2023-05-27T12:28:28;51600.84;;;-141.55;32.48
4199;BME280;2113;50.946;14.610;2023-05-27T12:30:56;51596.84;;;-141.55;35.71
4199;BME280;2113;50.946;14.610;2023-05-27T12:33:24;51592.84;;;-141.55;33.41
4199;BME280;2113;50.946;14.610;2023-05-27T12:35:54;51656.66;;;-141.55;31.36
4199;BME280;2113;50.946;14.610;2023-05-27T12:38:23;51582.88;;;-141.55;33.09
4199;BME280;2113;50.946;14.610;2023-05-27T12:40:52;51612.78;;;-141.55;31.18
4199;BME280;2113;50.946;14.610;2023-05-27T12:43:22;51606.81;;;-141.55;30.83
4199;BME280;2113;50.946;14.610;2023-05-27T12:45:51;51616.78;;;-141.55;31.33
4199;BME280;2113;50.946;14.610;2023-05-27T12:48:19;51584.88;;;-141.55;32.03
4199;BME280;2113;50.946;14.610;2023-05-27T12:50:48;51566.94;;;-141.55;32.52
4199;BME280;2113;50.946;14.610;2023-05-27T12:53:18;51610.81;;;-141.55;31.83
4199;BME280;2113;50.946;14.610;2023-05-27T12:55:46;51600.84;;;-141.55;33.25
4199;BME280;2113;50.946;14.610;2023-05-27T12:58:15;51566.94;;;-141.55;32.98
4199;BME280;2113;50.946;14.610;2023-05-27T13:00:44;51616.78;;;-141.55;33.10
4199;BME280;2113;50.946;14.610;2023-05-27T13:03:13;51616.78;;;-141.55;32.77
4199;BME280;2113;50.946;14.610;2023-05-27T13:05:41;51582.88;;;-141.55;32.95
4199;BME280;2113;50.946;14.610;2023-05-27T13:08:09;51604.81;;;-141.55;31.69
4199;BME280;2113;50.946;14.610;2023-05-27T13:10:39;51602.81;;;-141.55;31.75